Gambell Airport Gambell US
ICAO: PAGM
IATA:
Category: Medium
Scheduled Services:

Elevation: 27 ft
TransAlt. 0 ft.

Airport Communications:
AWOS 3:125.9
ANCHORAGE CNTR:132.2
CTAF:122.7
NOME RDO:122
TWEB:36.9

PAGM Zoom In..

If Map Doesn't Load, Click Here

Runways:

(A) RW 16 length 4499 ft width 96 ft
---- / hdg 160

(B) RW 34 length 4499 ft width 96 ft
---- / hdg 340

Location; PAGM
Day. 21 / Time. 12.56 Zulu
* Altimeter: 29.79
* Temperature: 08° c. 46.4°f.
* Wind from: 070° Speed 08 kn.
Dewpoint: 07° c.
Visibility: 10 Statute Miles.
Clouds: Few 4400 ft.
Clouds: Overcast 5500 ft.

PAGM 211256Z AUTO 07008KT 10SM FEW044 OVC055 08/07 A2979 RMK AO2 SLP093 T00830072


Wind From 070°
Speed 08 kn.

 
 
jpsmedia.com for Web Design worldairports.se 2018   terms of use